Time;durP1;ratioP1;P1;durP2;ratioP2;P2;SDS_P1;SDS_P2;PMS_P1;PMS_P2;Temp;Humidity;BMP_temperature;BMP_pressure;BME280_temperature;BME280_humidity;BME280_pressure;Samples;Min_cycle;Max_cycle;Signal;HPM_P1;HPM_P2
2021/07/05 00:00:38;;;;;;;9.80;4.32;;;19.60;99.90;;;20.06;74.16;100784.41;5114143;28;20077;-68
2021/07/05 00:03:06;;;;;;;12.70;4.32;;;19.60;99.90;;;19.96;74.12;100776.81;5113571;28;20039;-68
2021/07/05 00:05:35;;;;;;;11.10;5.10;;;19.60;99.90;;;19.99;74.24;100780.25;5113769;28;20127;-68
2021/07/05 00:08:04;;;;;;;14.48;5.00;;;19.60;99.90;;;20.02;74.28;100779.22;5112837;28;20078;-68
2021/07/05 00:10:33;;;;;;;10.90;4.70;;;19.60;99.90;;;19.97;74.21;100765.13;5095290;28;20501;-68
2021/07/05 00:13:03;;;;;;;11.13;4.90;;;19.60;99.90;;;19.98;74.27;100774.91;5113531;28;20078;-68
2021/07/05 00:15:34;;;;;;;12.65;4.93;;;19.60;99.90;;;20.00;74.36;100771.22;5095607;28;20493;-68
2021/07/05 00:18:07;;;;;;;9.60;4.40;;;19.60;99.90;;;20.02;74.37;100769.34;5113264;28;20044;-68
2021/07/05 00:20:39;;;;;;;9.43;4.55;;;19.60;99.90;;;20.04;74.32;100767.47;5113844;28;20046;-68
2021/07/05 00:23:10;;;;;;;11.15;5.32;;;19.60;99.90;;;20.00;74.13;100763.19;5113240;28;20561;-68
2021/07/05 00:25:39;;;;;;;10.88;4.63;;;19.60;99.90;;;20.05;74.08;100761.19;5113434;28;20092;-68
2021/07/05 00:28:09;;;;;;;12.05;5.20;;;19.60;99.90;;;20.00;74.13;100770.34;5113178;28;20073;-68
2021/07/05 00:30:37;;;;;;;11.23;5.53;;;19.60;99.90;;;19.99;74.15;100768.63;5095211;28;20101;-68
2021/07/05 00:33:06;;;;;;;8.82;4.57;;;19.60;99.90;;;19.96;74.16;100763.38;5095103;28;20540;-68
2021/07/05 00:35:35;;;;;;;10.40;5.55;;;19.60;99.90;;;19.94;74.07;100760.75;5094957;28;20059;-68
2021/07/05 00:38:04;;;;;;;14.23;5.32;;;19.50;99.90;;;19.92;73.69;100751.06;5113272;28;20047;-68
2021/07/05 00:40:33;;;;;;;12.43;5.45;;;19.50;99.90;;;19.79;73.61;100758.75;5113379;28;20083;-68
2021/07/05 00:43:01;;;;;;;13.02;5.68;;;19.40;99.90;;;19.77;73.56;100756.16;5113589;28;20035;-68
2021/07/05 00:45:32;;;;;;;10.35;5.25;;;19.30;99.90;;;19.65;73.16;100745.94;5113319;28;20039;-68
2021/07/05 00:48:01;;;;;;;12.00;5.85;;;19.30;99.90;;;19.57;72.75;100750.75;5113007;28;20048;-68
2021/07/05 00:50:30;;;;;;;13.55;5.50;;;19.20;99.90;;;19.37;72.75;100748.09;5113229;28;20043;-68
2021/07/05 00:53:02;;;;;;;13.57;6.43;;;19.10;99.90;;;19.39;72.64;100737.28;5113155;28;20455;-68
2021/07/05 00:55:32;;;;;;;14.60;5.57;;;19.00;99.90;;;19.35;71.83;100733.84;5113362;28;20044;-69
2021/07/05 00:58:01;;;;;;;9.43;5.18;;;19.00;99.90;;;19.43;72.05;100736.22;5113369;28;20084;-68
2021/07/05 01:00:32;;;;;;;10.38;5.30;;;19.00;99.90;;;19.41;71.90;100744.34;5112838;28;20552;-68
2021/07/05 01:03:01;;;;;;;11.38;5.80;;;19.00;99.90;;;19.47;71.95;100743.19;5113197;28;20420;-68
2021/07/05 01:05:30;;;;;;;12.50;5.35;;;19.00;99.90;;;19.50;72.11;100726.94;5112970;28;20036;-68
2021/07/05 01:07:59;;;;;;;14.75;5.90;;;19.00;99.90;;;19.54;71.89;100728.56;5113113;28;20122;-68
2021/07/05 01:10:28;;;;;;;12.15;5.85;;;19.10;99.90;;;19.54;71.74;100733.94;5113006;28;20051;-68
2021/07/05 01:12:58;;;;;;;16.92;6.68;;;19.10;99.90;;;18.99;71.93;100635.28;5112889;28;20051;-68
2021/07/05 01:15:32;;;;;;;13.23;6.30;;;19.10;99.90;;;19.45;72.05;100705.66;5113019;28;20131;-68
2021/07/05 01:18:04;;;;;;;13.73;5.95;;;19.10;99.90;;;19.53;72.22;100724.16;5112866;28;20136;-68
2021/07/05 01:20:36;;;;;;;12.32;5.68;;;19.10;99.90;;;19.56;72.33;100742.78;5116725;28;20052;-68
2021/07/05 01:23:09;;;;;;;18.25;6.30;;;19.10;99.90;;;18.96;72.54;100633.59;5116853;28;20393;-68
2021/07/05 01:25:39;;;;;;;18.27;6.40;;;19.10;99.90;;;19.52;72.51;100736.69;5116725;28;20047;-68
2021/07/05 01:28:09;;;;;;;15.45;7.07;;;19.10;99.90;;;19.43;72.83;100737.09;5116834;28;20139;-68
2021/07/05 01:30:40;;;;;;;11.90;6.13;;;19.10;99.90;;;19.48;73.02;100739.56;5116501;28;20048;-68
2021/07/05 01:33:10;;;;;;;16.05;7.18;;;19.10;99.90;;;19.45;73.30;100734.34;5116447;28;20058;-68
2021/07/05 01:35:39;;;;;;;;;;;19.10;99.90;;;19.44;73.49;100729.91;5116141;28;20112;-68
2021/07/05 01:38:13;;;;;;;15.25;6.57;;;19.10;99.90;;;19.43;73.60;100726.38;5116493;28;19962;-68
2021/07/05 01:40:43;;;;;;;17.10;6.57;;;19.10;99.90;;;19.46;73.68;100719.97;5116559;28;20040;-68
2021/07/05 01:43:13;;;;;;;17.23;7.20;;;19.10;99.90;;;19.32;73.74;100696.41;5116501;28;20048;-68
2021/07/05 01:45:41;;;;;;;12.77;6.25;;;19.00;99.90;;;19.40;73.91;100720.22;5115984;28;20435;-68
2021/07/05 01:48:10;;;;;;;13.43;5.97;;;19.00;99.90;;;19.40;73.91;100723.78;5115960;28;20051;-68
2021/07/05 01:50:38;;;;;;;14.43;6.30;;;19.00;99.90;;;19.36;73.97;100716.81;5116650;28;20069;-68
2021/07/05 01:53:07;;;;;;;15.93;6.65;;;19.00;99.90;;;19.32;74.05;100717.88;5116310;28;20043;-68
2021/07/05 01:55:38;;;;;;;19.08;7.47;;;18.90;99.90;;;19.31;74.19;100716.13;5116233;28;20035;-68
2021/07/05 01:58:08;;;;;;;;;;;18.90;99.90;;;19.16;74.49;100692.63;5116590;28;20047;-68
2021/07/05 02:00:40;;;;;;;19.73;6.90;;;18.90;99.90;;;19.15;74.72;100698.03;5097856;28;19969;-68
2021/07/05 02:03:09;;;;;;;13.27;6.70;;;18.90;99.90;;;19.24;74.96;100713.75;5116437;28;20057;-68
2021/07/05 02:05:38;;;;;;;16.50;7.47;;;18.90;99.90;;;19.24;75.01;100708.41;5116009;28;20485;-68
2021/07/05 02:08:07;;;;;;;18.52;7.88;;;18.80;99.90;;;19.21;75.22;100713.88;5116026;28;20040;-68
2021/07/05 02:10:39;;;;;;;14.15;6.50;;;18.80;99.90;;;19.18;75.06;100743.50;5097592;28;20047;-69
2021/07/05 02:13:11;;;;;;;11.75;6.32;;;18.80;99.90;;;19.10;75.37;100726.88;5116000;28;20108;-68
2021/07/05 02:15:41;;;;;;;11.98;6.70;;;18.80;99.90;;;19.07;75.63;100718.94;5116202;28;20039;-68
2021/07/05 02:18:11;;;;;;;13.20;6.97;;;18.70;99.90;;;19.07;75.92;100710.88;5115809;28;20288;-68
2021/07/05 02:20:40;;;;;;;14.35;7.03;;;18.70;99.90;;;19.11;75.97;100707.16;5115991;28;20081;-68
2021/07/05 02:23:13;;;;;;;13.25;6.78;;;18.70;99.90;;;19.11;76.05;100712.50;5115719;28;20067;-68
2021/07/05 02:25:44;;;;;;;13.88;7.05;;;18.70;99.90;;;19.00;75.94;100736.22;5115631;28;20047;-68
2021/07/05 02:28:14;;;;;;;;;;;18.60;99.90;;;18.98;75.98;100706.78;5115775;28;20043;-68
2021/07/05 02:30:45;;;;;;;12.60;7.03;;;18.70;99.90;;;19.00;75.95;100698.69;5114522;28;19920;-68
2021/07/05 02:33:15;;;;;;;19.50;6.97;;;18.60;99.90;;;18.96;76.03;100700.63;5115468;28;20378;-68
2021/07/05 02:35:44;;;;;;;11.35;7.10;;;18.60;99.90;;;18.94;75.97;100697.13;5115405;28;20055;-68
2021/07/05 02:38:14;;;;;;;15.32;7.45;;;18.60;99.90;;;18.88;75.73;100703.63;5115573;28;20408;-68
2021/07/05 02:40:46;;;;;;;14.80;6.70;;;18.50;99.90;;;18.68;75.90;100691.94;5115378;28;20047;-68
2021/07/05 02:43:17;;;;;;;11.57;7.20;;;18.40;99.90;;;18.66;76.16;100705.41;5115351;28;20046;-68
2021/07/05 02:45:46;;;;;;;14.07;7.93;;;18.30;99.90;;;18.57;76.12;100696.88;5115272;28;20052;-69
2021/07/05 02:48:19;;;;;;;15.77;7.87;;;18.30;99.90;;;18.60;76.49;100708.34;5097009;28;20556;-68
2021/07/05 02:50:53;;;;;;;14.18;7.82;;;18.20;99.90;;;18.48;76.49;100673.16;5115226;28;20292;-68
2021/07/05 02:53:22;;;;;;;19.23;7.70;;;18.30;99.90;;;18.57;76.27;100700.44;5097081;28;20051;-68
2021/07/05 02:55:53;;;;;;;16.33;8.13;;;18.20;99.90;;;18.50;76.71;100698.94;5115137;28;20040;-68
2021/07/05 02:58:22;;;;;;;18.73;8.00;;;18.20;99.90;;;18.49;76.78;100702.53;5096649;28;20493;-68
2021/07/05 03:00:54;;;;;;;22.88;8.98;;;18.10;99.90;;;18.31;76.90;100676.44;5114320;28;20059;-68
2021/07/05 03:03:24;;;;;;;19.05;8.05;;;18.10;99.90;;;18.40;76.85;100692.16;5114760;28;20480;-68
2021/07/05 03:05:53;;;;;;;15.03;7.47;;;18.10;99.90;;;18.42;77.06;100689.41;5114508;28;20069;-68
2021/07/05 03:08:22;;;;;;;15.05;8.00;;;18.00;99.90;;;18.42;77.14;100694.78;5115010;28;20119;-68
2021/07/05 03:10:52;;;;;;;18.08;7.60;;;18.10;99.90;;;18.42;76.79;100687.66;5115310;28;20101;-68
2021/07/05 03:13:21;;;;;;;13.93;7.22;;;18.10;99.90;;;18.37;76.76;100681.56;5114705;28;20062;-68
2021/07/05 03:15:51;;;;;;;15.57;8.10;;;18.10;99.90;;;18.44;76.76;100685.78;5114658;28;20057;-68
2021/07/05 03:18:20;;;;;;;15.93;8.53;;;18.10;99.90;;;18.29;76.92;100678.28;5114387;28;20052;-68
2021/07/05 03:20:51;;;;;;;21.90;8.77;;;18.00;99.90;;;18.31;76.88;100681.78;5114542;28;20297;-68
2021/07/05 03:23:21;;;;;;;17.27;7.88;;;18.00;99.90;;;18.35;77.02;100682.56;5114312;28;20048;-68
2021/07/05 03:25:50;;;;;;;17.45;8.15;;;18.00;99.90;;;18.32;76.98;100686.22;5113251;28;20089;-68
2021/07/05 03:28:20;;;;;;;14.45;7.72;;;18.00;99.90;;;18.26;77.12;100699.84;5114455;28;20093;-68
2021/07/05 03:30:51;;;;;;;;;;;17.90;99.90;;;18.13;77.39;100692.34;5114883;28;20047;-68
2021/07/05 03:33:20;;;;;;;17.40;7.93;;;17.90;99.90;;;18.07;77.64;100693.47;5114373;28;19973;-68
2021/07/05 03:35:51;;;;;;;14.63;8.40;;;17.80;99.90;;;17.90;78.19;100695.91;5095677;28;20451;-68
2021/07/05 03:38:21;;;;;;;19.63;8.00;;;17.60;99.90;;;17.95;77.93;100684.09;5113999;28;20109;-68
2021/07/05 03:40:49;;;;;;;18.00;8.70;;;17.60;99.90;;;18.06;77.83;100696.19;5114020;28;20043;-68
2021/07/05 03:43:19;;;;;;;17.92;8.10;;;17.60;99.90;;;18.09;77.68;100694.28;5113925;28;20074;-68
2021/07/05 03:45:48;;;;;;;20.23;8.00;;;17.70;99.90;;;18.07;77.46;100692.56;5114198;28;20036;-68
2021/07/05 03:48:17;;;;;;;20.10;8.25;;;17.70;99.90;;;17.92;77.80;100697.56;5114055;28;20050;-68
2021/07/05 03:50:46;;;;;;;22.13;8.70;;;17.60;99.90;;;17.98;77.73;100694.66;5114308;28;20091;-68
2021/07/05 03:53:14;;;;;;;22.73;9.63;;;17.60;99.90;;;18.05;77.85;100692.66;5095668;28;20557;-68
2021/07/05 03:55:43;;;;;;;21.30;8.60;;;17.60;99.90;;;18.04;77.70;100694.44;5113718;28;20078;-68
2021/07/05 03:58:11;;;;;;;17.20;8.05;;;17.70;99.90;;;17.99;77.75;100695.53;5113899;28;20112;-68
2021/07/05 04:00:41;;;;;;;20.42;8.05;;;17.60;99.90;;;17.96;77.78;100701.03;5113807;28;20044;-68
2021/07/05 04:03:10;;;;;;;19.90;7.82;;;17.60;99.90;;;17.23;78.07;100603.81;5113850;28;20084;-68
2021/07/05 04:05:46;;;;;;;18.98;9.13;;;17.50;99.90;;;17.85;78.30;100695.19;5113516;28;20385;-68
2021/07/05 04:08:14;;;;;;;21.65;8.65;;;17.50;99.90;;;17.87;78.22;100682.63;5095599;28;20055;-68
2021/07/05 04:10:43;;;;;;;20.05;8.98;;;17.50;99.90;;;17.97;78.17;100686.69;5095394;28;20043;-68
2021/07/05 04:13:12;;;;;;;17.83;8.20;;;17.60;99.90;;;18.01;77.79;100688.34;5113666;28;20386;-68
2021/07/05 04:15:42;;;;;;;22.00;8.73;;;17.60;99.90;;;17.89;77.76;100691.47;5113346;28;20469;-68
2021/07/05 04:18:10;;;;;;;20.65;8.18;;;17.60;99.90;;;17.80;77.98;100679.31;5113949;28;20071;-68
2021/07/05 04:20:39;;;;;;;16.85;8.40;;;17.50;99.90;;;17.91;78.00;100662.84;5113488;28;20397;-68
2021/07/05 04:23:08;;;;;;;18.05;8.20;;;17.50;99.90;;;18.01;77.78;100664.25;5113539;28;20068;-68
2021/07/05 04:25:37;;;;;;;19.30;8.45;;;17.60;99.90;;;18.07;77.37;100655.09;5113162;28;20439;-68
2021/07/05 04:28:06;;;;;;;19.45;8.77;;;17.70;99.90;;;18.13;77.20;100670.94;5113169;28;20067;-68
2021/07/05 04:30:36;;;;;;;18.33;8.20;;;17.80;99.90;;;18.14;77.18;100668.19;5095189;28;20047;-68
2021/07/05 04:33:06;;;;;;;20.40;8.27;;;17.70;99.90;;;18.07;77.05;100664.00;5113720;28;20047;-68
2021/07/05 04:35:35;;;;;;;18.08;8.15;;;17.70;99.90;;;18.03;77.01;100665.06;5113198;28;20409;-68
2021/07/05 04:38:04;;;;;;;16.33;7.95;;;17.70;99.90;;;18.08;77.17;100660.38;5113357;28;20435;-68
2021/07/05 04:40:36;;;;;;;19.05;8.48;;;17.70;99.90;;;18.01;77.26;100657.09;5113256;28;20035;-68
2021/07/05 04:43:06;;;;;;;20.73;8.80;;;17.60;99.90;;;18.08;77.20;100655.03;5113364;28;20089;-68
2021/07/05 04:45:37;;;;;;;21.10;8.32;;;17.70;99.90;;;18.00;77.13;100638.41;5112025;28;20043;-68
2021/07/05 04:48:08;;;;;;;14.23;7.50;;;17.70;99.90;;;18.11;77.05;100657.59;5095057;28;20059;-68
2021/07/05 04:50:37;;;;;;;17.85;7.50;;;17.70;99.90;;;18.09;77.04;100656.78;5113337;28;20047;-68
2021/07/05 04:53:06;;;;;;;16.75;7.70;;;17.70;99.90;;;18.12;77.01;100664.69;5113239;28;20032;-68
2021/07/05 04:55:35;;;;;;;17.40;7.53;;;17.70;99.90;;;18.08;77.02;100659.53;5117138;28;20061;-68
2021/07/05 04:58:03;;;;;;;17.63;8.50;;;17.70;99.90;;;18.08;76.98;100673.78;5098983;28;20078;-68
2021/07/05 05:00:35;;;;;;;19.65;7.75;;;17.70;99.90;;;18.10;77.02;100679.94;5098894;28;20067;-68
2021/07/05 05:03:06;;;;;;;18.17;8.57;;;17.70;99.90;;;18.11;77.05;100671.00;5116021;28;20044;-68
2021/07/05 05:05:35;;;;;;;21.20;7.50;;;17.70;99.90;;;17.99;77.25;100675.00;5117498;28;20039;-69
2021/07/05 05:08:08;;;;;;;20.77;7.88;;;17.70;99.90;;;18.05;77.38;100671.22;5117004;28;20083;-68
2021/07/05 05:10:37;;;;;;;18.40;7.55;;;17.70;99.90;;;18.06;77.42;100672.97;5117372;28;20108;-68
2021/07/05 05:13:06;;;;;;;17.50;8.23;;;17.70;99.90;;;18.01;77.25;100666.91;5116996;28;20044;-68
2021/07/05 05:15:36;;;;;;;17.77;7.57;;;17.70;99.90;;;18.01;77.20;100670.47;5116949;28;20046;-68
2021/07/05 05:18:07;;;;;;;20.20;7.80;;;17.70;99.90;;;18.09;77.06;100674.66;5116723;28;20118;-68
2021/07/05 05:20:35;;;;;;;;;;;17.70;99.90;;;18.09;77.12;100672.84;5117215;28;20040;-68
2021/07/05 05:23:03;;;;;;;18.85;7.50;;;17.80;99.90;;;18.07;77.03;100672.03;5116914;28;19981;-68
2021/07/05 05:25:32;;;;;;;17.83;8.15;;;17.70;99.90;;;17.95;77.12;100668.03;5116697;28;20065;-68
2021/07/05 05:28:00;;;;;;;16.75;6.90;;;17.70;99.90;;;17.95;77.28;100667.16;5116805;28;20071;-68
2021/07/05 05:30:29;;;;;;;16.55;8.13;;;17.60;99.90;;;17.98;76.96;100669.72;5098336;28;20085;-68
2021/07/05 05:32:57;;;;;;;18.60;7.60;;;17.60;99.90;;;17.88;77.03;100684.38;5116362;28;20505;-68
2021/07/05 05:35:28;;;;;;;18.33;8.25;;;17.60;99.90;;;17.87;76.89;100677.25;5116101;28;20113;-68
2021/07/05 05:37:57;;;;;;;17.48;7.00;;;17.50;99.90;;;17.85;76.93;100689.81;5098334;28;20078;-68
2021/07/05 05:40:27;;;;;;;17.98;8.13;;;17.50;99.90;;;17.96;76.57;100669.75;5116410;28;20089;-68
2021/07/05 05:42:56;;;;;;;18.42;7.75;;;17.60;99.90;;;17.99;76.28;100677.69;5116205;28;20420;-68
2021/07/05 05:45:25;;;;;;;15.20;7.80;;;17.70;99.90;;;18.13;76.81;100676.28;5116361;28;20074;-68
2021/07/05 05:47:53;;;;;;;17.95;7.97;;;17.70;99.90;;;18.28;76.54;100675.69;5116314;28;20035;-68
2021/07/05 05:50:22;;;;;;;19.92;8.23;;;17.90;99.90;;;18.33;76.30;100679.06;5116253;28;20142;-68
2021/07/05 05:52:52;;;;;;;13.77;6.93;;;18.00;99.90;;;18.43;75.87;100680.47;5115985;28;20405;-68
2021/07/05 05:55:21;;;;;;;16.05;7.22;;;18.10;99.90;;;18.27;75.46;100666.81;5116259;28;20134;-68
2021/07/05 05:57:51;;;;;;;16.15;6.70;;;18.10;99.90;;;18.48;75.28;100683.84;5115859;28;20051;-68
2021/07/05 06:00:23;;;;;;;29.88;7.85;;;18.20;99.90;;;18.50;74.88;100688.22;5097742;28;20043;-68
2021/07/05 06:02:54;;;;;;;16.63;6.85;;;18.20;99.90;;;18.75;75.24;100694.34;5097854;28;20509;-68
2021/07/05 06:05:23;;;;;;;16.38;7.60;;;18.40;99.90;;;18.73;74.32;100688.19;5115807;28;20044;-68
2021/07/05 06:07:53;;;;;;;15.85;6.32;;;18.40;99.90;;;18.79;74.33;100690.56;5115940;28;20047;-68
2021/07/05 06:10:24;;;;;;;17.00;6.60;;;18.40;99.90;;;18.92;74.44;100691.84;5097901;28;20083;-68
2021/07/05 06:12:55;;;;;;;20.58;7.47;;;18.60;99.90;;;19.02;74.10;100689.66;5115936;28;20462;-68
2021/07/05 06:15:24;;;;;;;17.98;6.80;;;18.70;99.90;;;19.06;73.71;100693.06;5097888;28;20056;-68
2021/07/05 06:18:00;;;;;;;16.00;6.63;;;18.70;99.90;;;19.07;73.05;100694.81;5115927;28;20147;-68
2021/07/05 06:20:29;;;;;;;12.90;6.45;;;18.70;99.90;;;18.97;72.84;100693.47;5097497;28;20035;-68
2021/07/05 06:23:16;;;;;;;19.23;7.18;;;18.60;99.90;;;19.14;72.90;100717.75;5115671;28;20048;-68
2021/07/05 06:25:45;;;;;;;14.68;6.70;;;18.70;99.90;;;19.14;72.91;100691.81;5115314;28;20035;-68
2021/07/05 06:28:14;;;;;;;16.13;6.78;;;18.80;99.90;;;19.25;72.91;100691.34;5115573;28;20042;-68
2021/07/05 06:30:43;;;;;;;22.55;7.50;;;18.80;99.90;;;19.25;72.91;100700.28;5097491;28;20047;-68
2021/07/05 06:33:12;;;;;;;17.08;6.32;;;18.90;99.90;;;19.30;72.39;100700.09;5115550;28;20131;-68
2021/07/05 06:35:41;;;;;;;16.75;6.45;;;19.00;99.90;;;19.34;72.19;100690.97;5115432;28;20049;-69
2021/07/05 06:38:13;;;;;;;15.00;6.82;;;19.00;99.90;;;19.35;72.11;100706.16;5115197;28;20575;-69
2021/07/05 06:40:43;;;;;;;15.57;6.68;;;19.00;99.90;;;19.37;72.17;100709.66;5115099;28;20044;-66
2021/07/05 06:43:13;;;;;;;16.23;7.00;;;19.00;99.90;;;19.25;72.10;100715.50;5097053;28;20043;-68
2021/07/05 06:45:59;;;;;;;16.17;6.78;;;19.00;99.90;;;19.30;71.81;100710.81;5097083;28;20376;-66
2021/07/05 06:48:27;;;;;;;18.08;6.95;;;18.90;99.90;;;19.24;72.02;100706.56;5115182;28;20102;-68
2021/07/05 06:50:56;;;;;;;14.30;7.13;;;18.90;99.90;;;19.30;72.09;100705.47;5115083;28;20040;-68
2021/07/05 06:53:26;;;;;;;14.68;7.25;;;18.90;99.90;;;19.50;72.38;100701.00;5115116;28;20044;-69
2021/07/05 06:55:54;;;;;;;17.37;6.97;;;19.10;99.90;;;19.56;72.62;100708.78;5096945;28;20047;-69
2021/07/05 06:58:23;;;;;;;21.92;7.47;;;19.20;99.90;;;19.69;72.34;100725.22;5096630;28;20036;-67
2021/07/05 07:00:51;;;;;;;15.77;6.43;;;19.30;99.90;;;19.75;71.59;100722.25;5114911;28;20040;-67
2021/07/05 07:03:22;;;;;;;15.18;6.70;;;19.40;99.90;;;19.73;71.88;100724.13;5114923;28;20052;-66
2021/07/05 07:05:51;;;;;;;13.75;6.75;;;19.40;99.90;;;19.80;71.83;100725.63;5115004;28;20047;-65
2021/07/05 07:08:24;;;;;;;17.40;6.75;;;19.40;99.90;;;19.71;71.68;100705.41;5113576;28;20056;-66
2021/07/05 07:10:53;;;;;;;14.15;7.45;;;19.50;99.90;;;19.80;71.62;100714.88;5096510;28;20048;-67
2021/07/05 07:13:21;;;;;;;13.73;7.30;;;19.50;99.90;;;19.73;71.62;100729.50;5114675;28;20075;-66
2021/07/05 07:15:52;;;;;;;18.08;6.93;;;19.40;99.90;;;19.83;71.82;100729.97;5114600;28;20040;-65
2021/07/05 07:21:05;;;;;;;17.20;7.38;;;19.40;99.90;;;19.89;71.51;100735.06;5069969;28;20048;-65
2021/07/05 07:23:36;;;;;;;15.20;7.55;;;19.50;99.90;;;19.86;71.29;100736.06;5114556;28;20382;-64
2021/07/05 07:26:04;;;;;;;19.88;8.60;;;19.50;99.90;;;19.89;71.10;100740.44;5114552;28;20116;-65
2021/07/05 07:28:33;;;;;;;13.25;7.13;;;19.50;99.90;;;20.02;71.77;100739.81;5114491;28;20035;-65
2021/07/05 07:31:02;;;;;;;19.63;7.70;;;19.70;99.90;;;20.00;70.91;100738.13;5114063;28;20457;-65
2021/07/05 07:33:30;;;;;;;17.52;7.78;;;19.70;99.90;;;19.95;70.87;100741.03;5114377;28;20054;-66
2021/07/05 07:36:01;;;;;;;19.25;7.45;;;19.60;99.90;;;20.10;71.00;100740.34;5114242;28;20096;-67
2021/07/05 07:38:35;;;;;;;15.70;7.65;;;19.70;99.90;;;20.13;70.51;100742.88;5114604;28;20054;-62
2021/07/05 07:41:05;;;;;;;15.73;8.68;;;19.80;99.90;;;20.21;70.61;100750.66;5113896;28;20516;-64
2021/07/05 07:43:34;;;;;;;20.33;7.97;;;19.80;99.90;;;20.11;69.37;100746.59;5114189;28;20047;-65
2021/07/05 07:46:02;;;;;;;19.25;8.00;;;19.80;99.90;;;20.01;68.92;100730.03;5113753;28;20058;-65
2021/07/05 07:48:32;;;;;;;18.88;7.70;;;19.70;99.90;;;20.17;69.74;100725.69;5113780;28;20460;-65
2021/07/05 07:51:01;;;;;;;18.42;8.23;;;19.80;99.90;;;20.29;68.94;100740.41;5114051;28;20031;-65
2021/07/05 07:53:30;;;;;;;13.80;7.55;;;19.90;99.90;;;20.30;69.22;100745.72;5113702;28;20413;-66
2021/07/05 07:55:59;;;;;;;16.90;7.70;;;20.00;99.90;;;20.23;69.42;100746.03;5113696;28;20065;-66
2021/07/05 07:58:30;;;;;;;13.80;7.60;;;19.90;99.90;;;20.16;69.62;100718.59;5113833;28;20035;-65
2021/07/05 08:00:58;;;;;;;16.25;7.78;;;20.00;99.90;;;20.31;69.61;100744.75;5113521;28;20043;-65
2021/07/05 08:03:30;;;;;;;19.58;8.38;;;19.90;99.90;;;20.32;69.50;100734.91;5113482;28;20129;-63
2021/07/05 08:05:59;;;;;;;15.63;7.80;;;20.00;99.90;;;20.44;69.91;100751.31;5113699;28;20098;-66
2021/07/05 08:08:27;;;;;;;17.83;7.22;;;20.10;99.90;;;20.36;69.87;100737.34;5113693;28;20047;-64
2021/07/05 08:10:56;;;;;;;19.92;7.30;;;20.00;99.90;;;20.33;69.82;100745.56;5113614;28;20043;-66
2021/07/05 08:13:24;;;;;;;15.68;7.13;;;20.00;99.90;;;20.46;70.39;100753.94;5113431;28;20495;-65
2021/07/05 08:15:54;;;;;;;18.70;7.45;;;20.10;99.90;;;20.31;70.31;100747.44;5095397;28;20253;-64
2021/07/05 08:18:23;;;;;;;23.30;7.72;;;20.00;99.90;;;20.28;70.07;100750.28;5111950;28;20050;-64
2021/07/05 08:20:51;;;;;;;13.18;7.00;;;20.00;99.90;;;20.30;70.67;100751.09;5113595;28;20087;-64
2021/07/05 08:23:20;;;;;;;18.17;8.50;;;19.90;99.90;;;20.22;70.62;100738.94;5113061;28;20382;-64
2021/07/05 08:25:49;;;;;;;17.40;7.13;;;19.90;99.90;;;20.36;71.09;100742.72;5113299;28;20032;-64
2021/07/05 08:28:17;;;;;;;19.05;7.55;;;20.00;99.90;;;20.49;71.41;100729.59;5112470;28;20052;-65
2021/07/05 08:30:46;;;;;;;14.07;7.10;;;20.20;99.90;;;20.65;70.67;100736.84;5113424;28;20430;-64
2021/07/05 08:33:16;;;;;;;16.48;6.60;;;20.30;99.90;;;20.53;69.19;100737.47;5113392;28;20047;-64
2021/07/05 08:35:45;;;;;;;14.27;7.15;;;20.30;99.90;;;20.52;68.21;100734.81;5113295;28;20075;-66
2021/07/05 08:38:13;;;;;;;13.48;6.85;;;20.20;99.90;;;20.27;68.62;100688.53;5113239;28;20067;-67
2021/07/05 08:40:43;;;;;;;16.70;7.00;;;20.20;99.90;;;20.58;68.34;100727.34;5113298;28;20047;-66
2021/07/05 08:43:12;;;;;;;13.10;6.95;;;20.30;99.90;;;20.48;68.08;100736.78;5094850;28;20043;-65
2021/07/05 08:45:43;;;;;;;16.25;6.80;;;20.10;99.90;;;20.49;68.75;100745.72;5113015;28;20386;-66
2021/07/05 08:48:16;;;;;;;15.95;6.68;;;20.10;99.90;;;20.54;68.68;100738.31;5113257;28;20054;-66
2021/07/05 08:50:48;;;;;;;16.70;6.85;;;20.20;99.90;;;20.51;68.38;100742.03;5113638;28;20071;-66
2021/07/05 08:53:16;;;;;;;13.23;6.20;;;20.20;99.90;;;20.53;67.88;100733.88;5113220;28;20499;-66
2021/07/05 08:55:45;;;;;;;14.07;6.30;;;20.20;99.90;;;20.53;68.28;100733.88;5094698;28;20043;-67
2021/07/05 08:58:13;;;;;;;12.38;5.80;;;20.20;99.90;;;20.59;68.34;100738.97;5112984;28;20058;-66
2021/07/05 09:00:43;;;;;;;14.65;6.65;;;20.30;99.90;;;20.75;67.90;100736.44;5113164;28;20042;-66
2021/07/05 09:03:12;;;;;;;14.10;6.45;;;20.40;99.90;;;20.80;67.80;100726.31;5113076;28;20127;-66
2021/07/05 09:05:42;;;;;;;12.43;6.60;;;20.50;99.90;;;21.00;66.25;100737.81;5113097;28;20043;-66
2021/07/05 09:08:12;;;;;;;11.48;6.05;;;20.60;99.90;;;21.02;66.97;100743.19;5113200;28;20039;-66
2021/07/05 09:10:49;;;;;;;16.33;6.30;;;20.70;99.90;;;20.87;66.27;100700.84;5112944;28;20720;-66
2021/07/05 09:13:21;;;;;;;13.50;6.43;;;20.80;99.90;;;21.13;65.88;100738.13;5113066;28;20039;-66
2021/07/05 09:15:51;;;;;;;13.88;6.00;;;20.80;99.90;;;21.04;65.02;100749.38;5113045;28;20465;-66
2021/07/05 09:18:35;;;;;;;13.32;6.03;;;20.80;99.90;;;21.12;65.57;100739.06;5113093;28;20077;-66
2021/07/05 09:21:17;;;;;;;14.88;6.53;;;20.70;99.90;;;21.04;65.18;100739.44;5112747;28;20039;-66
2021/07/05 09:24:00;;;;;;;14.02;6.05;;;20.80;99.90;;;20.40;65.14;100634.16;5112922;28;20043;-65
2021/07/05 09:26:33;;;;;;;12.00;5.95;;;20.60;99.90;;;20.92;65.08;100740.03;5112575;28;20040;-66
2021/07/05 09:29:06;;;;;;;16.88;6.40;;;20.60;99.90;;;20.91;64.79;100724.84;5112600;28;20043;-66
2021/07/05 09:31:41;;;;;;;11.38;6.00;;;20.60;99.90;;;21.04;65.81;100733.22;5094505;28;20055;-66
2021/07/05 09:34:19;;;;;;;16.65;6.20;;;20.70;99.90;;;20.98;66.14;100736.19;5112925;28;20122;-65
2021/07/05 09:36:52;;;;;;;9.90;5.53;;;20.60;99.90;;;20.97;64.87;100735.31;5112379;28;20052;-66
2021/07/05 09:39:24;;;;;;;14.23;5.80;;;20.60;99.90;;;21.06;64.36;100742.09;5113106;28;20105;-66
2021/07/05 09:41:55;;;;;;;11.00;6.05;;;20.70;99.90;;;21.17;65.43;100746.00;5098304;28;20055;-66
2021/07/05 09:44:27;;;;;;;12.20;6.10;;;20.80;99.90;;;21.11;65.51;100722.09;5098171;28;20055;-66
2021/07/05 09:46:58;;;;;;;11.95;6.00;;;20.90;99.90;;;21.34;64.87;100739.75;5116464;28;20048;-66
2021/07/05 09:49:30;;;;;;;10.88;5.13;;;21.00;99.90;;;21.19;63.73;100721.69;5116361;28;20047;-66
2021/07/05 09:52:14;;;;;;;11.13;5.30;;;21.00;99.90;;;21.17;63.12;100742.41;5116096;28;20040;-66
2021/07/05 09:54:45;;;;;;;8.88;5.22;;;20.90;99.90;;;21.07;62.07;100742.00;5116279;28;20051;-66
2021/07/05 09:57:28;;;;;;;9.73;5.70;;;20.80;99.90;;;21.00;61.74;100736.97;5116330;28;20542;-66
2021/07/05 09:59:59;;;;;;;9.25;5.65;;;20.70;99.90;;;20.92;61.09;100737.34;5116161;28;20066;-66
2021/07/05 10:02:28;;;;;;;8.02;4.90;;;20.60;99.90;;;21.01;61.69;100742.31;5115995;28;20043;-66
2021/07/05 10:05:11;;;;;;;9.23;4.90;;;20.60;99.90;;;20.92;61.16;100729.28;5115733;28;20039;-66
2021/07/05 10:07:42;;;;;;;14.15;5.60;;;20.60;99.90;;;20.99;61.60;100732.53;5115965;28;20107;-66
2021/07/05 10:10:15;;;;;;;9.57;5.03;;;20.60;99.90;;;21.05;62.36;100737.63;5097607;28;20497;-67
2021/07/05 10:12:52;;;;;;;9.20;5.10;;;20.60;99.90;;;21.11;62.99;100737.34;5115955;28;20109;-67
2021/07/05 10:15:23;;;;;;;10.45;5.78;;;20.70;99.90;;;21.09;63.50;100741.91;5115648;28;20438;-66
2021/07/05 10:17:54;;;;;;;9.27;5.38;;;20.70;99.90;;;21.15;63.48;100741.63;5115714;28;20161;-67
2021/07/05 10:20:28;;;;;;;13.38;5.75;;;20.80;99.90;;;20.92;62.45;100740.03;5115622;28;20036;-66
2021/07/05 10:23:01;;;;;;;10.55;5.60;;;20.70;99.90;;;20.77;63.17;100747.97;5115561;28;20055;-67